Terminal Aerodrome Forecast
Issued by NWS

Current Version | Previous Version | Text Only | Print | Product List | Glossary Off
Versions: 1 2 3 4 5 6 7 8 9 10 11 12 13 14 15 16 17 18 19 20 21 22 23 24 25

000
FTUS41 KRLX 210539
TAFCKB
TAF
KCKB 210539Z 2106/2206 02003KT P6SM BKN100
      TEMPO 2106/2109 6SM -SHRA BKN040
     FM210900 VRB03KT 6SM -SHRA BKN060
     FM211100 VRB03KT 6SM -SHRA BKN030
     FM211300 VRB03KT P6SM BKN015
     FM211700 VRB03KT P6SM BKN025
     FM220200 30004KT P6SM SCT025=

USA.gov is the U.S. government's official web portal to all federal, state and local government web resources and services.